createdAt,value
2022-10-23T00:00:32.144Z,8.30
2022-10-23T00:03:34.361Z,8.90
2022-10-23T00:06:21.499Z,9.10
2022-10-23T00:09:12.017Z,8.50
2022-10-23T00:11:58.412Z,7.90
2022-10-23T00:14:44.845Z,9.00
2022-10-23T00:17:32.216Z,8.60
2022-10-23T00:20:18.658Z,8.70
2022-10-23T00:23:05.196Z,9.50
2022-10-23T00:25:51.595Z,9.70
2022-10-23T00:28:37.970Z,9.00
2022-10-23T00:31:25.283Z,8.70
2022-10-23T00:34:11.712Z,9.20
2022-10-23T00:36:58.088Z,9.00
2022-10-23T00:39:44.665Z,8.60
2022-10-23T00:42:31.362Z,9.70
2022-10-23T00:45:26.984Z,9.80
2022-10-23T00:48:13.779Z,10.10
2022-10-23T00:50:59.939Z,10.90
2022-10-23T00:54:00.988Z,9.80
2022-10-23T00:57:01.225Z,9.90
2022-10-23T00:59:47.912Z,10.30
2022-10-23T01:02:34.919Z,11.30
2022-10-23T01:05:29.846Z,10.30
2022-10-23T01:08:37.159Z,9.30
2022-10-23T01:11:41.328Z,10.10
2022-10-23T01:14:42.491Z,9.90
2022-10-23T01:17:51.771Z,10.80
2022-10-23T01:20:54.870Z,10.50
2022-10-23T01:24:10.300Z,9.00
2022-10-23T01:27:23.375Z,9.50
2022-10-23T01:30:16.227Z,9.40
2022-10-23T01:33:12.378Z,10.00
2022-10-23T01:36:11.878Z,8.70
2022-10-23T01:39:11.850Z,9.90
2022-10-23T01:42:15.974Z,11.00
2022-10-23T01:45:38.601Z,10.20
2022-10-23T01:48:30.451Z,10.50
2022-10-23T01:51:19.099Z,11.60
2022-10-23T01:54:11.008Z,10.80
2022-10-23T01:56:58.799Z,11.70
2022-10-23T01:59:57.559Z,11.80
2022-10-23T02:02:46.535Z,11.10
2022-10-23T02:05:33.596Z,12.70
2022-10-23T02:08:21.270Z,11.30
2022-10-23T02:11:14.763Z,11.00
2022-10-23T02:14:20.015Z,12.60
2022-10-23T02:17:35.459Z,12.80
2022-10-23T02:20:27.594Z,11.60
2022-10-23T02:23:32.627Z,11.10
2022-10-23T02:26:48.550Z,12.50
2022-10-23T02:29:42.722Z,12.90
2022-10-23T02:32:29.858Z,12.90
2022-10-23T02:35:18.980Z,12.20
2022-10-23T02:38:31.276Z,12.50
2022-10-23T02:41:22.854Z,11.90
2022-10-23T02:44:39.741Z,13.70
2022-10-23T02:48:09.203Z,12.70
2022-10-23T02:51:17.540Z,13.10
2022-10-23T02:54:18.498Z,12.60
2022-10-23T02:57:53.448Z,13.20
2022-10-23T03:00:48.965Z,12.80
2022-10-23T03:03:42.099Z,14.20
2022-10-23T03:06:28.474Z,13.00
2022-10-23T03:09:16.358Z,11.80
2022-10-23T03:12:03.160Z,12.20
2022-10-23T03:14:52.013Z,12.30
2022-10-23T03:17:39.110Z,13.70
2022-10-23T03:20:25.561Z,13.80
2022-10-23T03:23:13.374Z,12.30
2022-10-23T03:26:00.098Z,13.00
2022-10-23T03:28:55.091Z,10.90
2022-10-23T03:31:42.539Z,11.40
2022-10-23T03:34:31.626Z,11.70
2022-10-23T03:37:17.712Z,11.40
2022-10-23T03:40:04.944Z,11.90
2022-10-23T03:42:53.427Z,12.00
2022-10-23T03:45:39.667Z,11.60
2022-10-23T03:48:26.111Z,11.70
2022-10-23T03:51:17.111Z,10.10
2022-10-23T03:54:03.249Z,11.30
2022-10-23T03:56:53.610Z,11.50
2022-10-23T03:59:42.661Z,11.50
2022-10-23T04:02:29.414Z,10.70
2022-10-23T04:05:15.933Z,10.60
2022-10-23T04:08:07.420Z,11.40
2022-10-23T04:10:54.510Z,11.10
2022-10-23T04:13:48.784Z,11.10
2022-10-23T04:16:34.870Z,10.70
2022-10-23T04:19:21.490Z,10.00
2022-10-23T04:22:08.295Z,10.00
2022-10-23T04:24:54.794Z,10.80
2022-10-23T04:27:41.221Z,10.80
2022-10-23T04:30:27.910Z,9.90
2022-10-23T04:33:15.107Z,9.90
2022-10-23T04:36:01.156Z,11.00
2022-10-23T04:38:47.676Z,9.80
2022-10-23T04:41:33.959Z,10.00
2022-10-23T04:44:20.128Z,10.90
2022-10-23T04:47:06.682Z,9.70
2022-10-23T04:49:57.878Z,9.30
2022-10-23T04:53:03.176Z,9.50
2022-10-23T04:56:12.814Z,11.30
2022-10-23T04:59:09.163Z,10.50
2022-10-23T05:01:57.865Z,10.50
2022-10-23T05:04:44.177Z,10.70
2022-10-23T05:07:49.267Z,10.50
2022-10-23T05:11:02.483Z,9.90
2022-10-23T05:13:48.767Z,10.70
2022-10-23T05:16:51.627Z,11.20
2022-10-23T05:19:45.496Z,10.30
2022-10-23T05:22:36.868Z,10.00
2022-10-23T05:25:25.540Z,11.50
2022-10-23T05:28:20.086Z,10.70
2022-10-23T05:31:06.660Z,10.90
2022-10-23T05:33:56.218Z,11.00
2022-10-23T05:36:42.895Z,11.30
2022-10-23T05:39:29.369Z,11.20
2022-10-23T05:42:15.798Z,11.60
2022-10-23T05:45:02.572Z,12.40
2022-10-23T05:48:22.099Z,11.20
2022-10-23T05:51:28.056Z,10.70
2022-10-23T05:54:33.093Z,11.10
2022-10-23T05:57:38.101Z,9.70
2022-10-23T06:00:28.604Z,12.70
2022-10-23T06:03:21.699Z,9.20
2022-10-23T06:06:07.918Z,11.20
2022-10-23T06:09:06.247Z,13.10
2022-10-23T06:11:56.845Z,13.20
2022-10-23T06:14:43.085Z,11.70
2022-10-23T06:17:30.277Z,11.70
2022-10-23T06:20:16.565Z,11.90
2022-10-23T06:23:05.727Z,13.30
2022-10-23T06:26:19.159Z,13.40
2022-10-23T06:29:15.723Z,11.00
2022-10-23T06:32:02.615Z,12.10
2022-10-23T06:34:48.768Z,12.40
2022-10-23T06:37:34.992Z,13.20
2022-10-23T06:40:37.399Z,11.40
2022-10-23T06:43:25.699Z,12.30
2022-10-23T06:46:34.358Z,10.80
2022-10-23T06:49:38.192Z,13.10
2022-10-23T06:52:42.070Z,17.40
2022-10-23T06:55:34.186Z,14.80
2022-10-23T06:58:21.867Z,13.00
2022-10-23T07:01:17.732Z,15.10
2022-10-23T07:04:04.700Z,14.20
2022-10-23T07:06:50.931Z,20.40
2022-10-23T07:09:39.758Z,12.20
2022-10-23T07:12:48.381Z,12.50
2022-10-23T07:15:58.170Z,14.60
2022-10-23T07:18:46.024Z,17.30
2022-10-23T07:21:47.942Z,11.50
2022-10-23T07:24:52.925Z,11.10
2022-10-23T07:27:43.870Z,11.20
2022-10-23T07:30:31.375Z,11.50
2022-10-23T07:33:18.356Z,21.60
2022-10-23T07:36:23.533Z,16.70
2022-10-23T07:39:11.409Z,13.20
2022-10-23T07:42:04.185Z,11.10
2022-10-23T07:44:50.545Z,9.80
2022-10-23T07:47:36.792Z,9.50
2022-10-23T07:50:23.429Z,10.70
2022-10-23T07:53:29.846Z,8.40
2022-10-23T07:56:29.391Z,8.80
2022-10-23T07:59:38.025Z,10.30
2022-10-23T08:02:27.786Z,10.30
2022-10-23T08:05:18.178Z,10.50
2022-10-23T08:08:10.174Z,11.30
2022-10-23T08:10:57.106Z,11.30
2022-10-23T08:13:47.361Z,9.90
2022-10-23T08:16:37.084Z,9.80
2022-10-23T08:19:23.729Z,28.90
2022-10-23T08:22:12.764Z,14.60
2022-10-23T08:24:59.316Z,9.80
2022-10-23T08:27:45.965Z,9.70
2022-10-23T08:30:33.202Z,10.30
2022-10-23T08:33:20.260Z,10.60
2022-10-23T08:36:20.252Z,9.20
2022-10-23T08:39:07.161Z,8.90
2022-10-23T08:41:54.427Z,6.90
2022-10-23T08:44:54.585Z,6.20
2022-10-23T08:47:53.851Z,6.00
2022-10-23T08:51:46.518Z,5.20
2022-10-23T08:54:58.572Z,6.00
2022-10-23T08:58:33.908Z,6.30
2022-10-23T09:01:55.333Z,5.60
2022-10-23T09:04:45.039Z,4.80
2022-10-23T09:07:56.904Z,4.00
2022-10-23T09:11:21.333Z,3.70
2022-10-23T09:14:58.695Z,4.00
2022-10-23T09:17:47.336Z,4.70
2022-10-23T09:20:35.655Z,4.40
2022-10-23T09:23:24.002Z,5.00
2022-10-23T09:26:19.546Z,4.90
2022-10-23T09:29:29.110Z,5.20
2022-10-23T09:32:15.269Z,4.00
2022-10-23T09:35:01.540Z,4.30
2022-10-23T09:37:52.490Z,4.60
2022-10-23T09:40:43.049Z,4.10
2022-10-23T09:43:30.079Z,4.00
2022-10-23T09:46:21.416Z,3.90
2022-10-23T09:49:29.517Z,3.90
2022-10-23T09:52:17.152Z,3.60
2022-10-23T09:55:26.088Z,3.70
2022-10-23T09:58:31.995Z,3.80
2022-10-23T10:01:38.326Z,3.50
2022-10-23T10:04:43.564Z,3.90
2022-10-23T10:07:33.333Z,4.80
2022-10-23T10:10:23.483Z,4.40
2022-10-23T10:13:37.662Z,4.00
2022-10-23T10:16:46.565Z,4.00
2022-10-23T10:20:03.723Z,3.80
2022-10-23T10:23:06.725Z,4.20
2022-10-23T10:26:01.387Z,4.00
2022-10-23T10:28:59.360Z,3.80
2022-10-23T10:32:17.642Z,3.70
2022-10-23T10:35:45.422Z,4.00
2022-10-23T10:38:51.103Z,3.60
2022-10-23T10:42:03.242Z,3.60
2022-10-23T10:45:16.987Z,3.50
2022-10-23T10:48:31.847Z,3.90
2022-10-23T10:52:20.892Z,3.70
2022-10-23T10:55:10.523Z,3.00
2022-10-23T10:58:16.077Z,2.40
2022-10-23T11:01:14.405Z,2.70
2022-10-23T11:04:39.709Z,3.20
2022-10-23T11:07:37.816Z,3.10
2022-10-23T11:10:24.257Z,2.80
2022-10-23T11:13:37.248Z,2.80
2022-10-23T11:16:37.959Z,2.70
2022-10-23T11:19:41.567Z,2.80
2022-10-23T11:23:05.972Z,2.70
2022-10-23T11:26:19.942Z,2.90
2022-10-23T11:29:51.209Z,2.90
2022-10-23T11:33:14.144Z,3.00
2022-10-23T11:36:31.947Z,2.90
2022-10-23T11:39:32.605Z,2.80
2022-10-23T11:42:40.984Z,3.20
2022-10-23T11:45:34.719Z,3.00
2022-10-23T11:48:37.033Z,3.10
2022-10-23T11:51:39.355Z,3.00
2022-10-23T11:54:26.813Z,2.90
2022-10-23T11:57:17.037Z,2.40
2022-10-23T12:00:18.314Z,3.10
2022-10-23T12:03:14.209Z,2.80
2022-10-23T12:06:05.264Z,2.70
2022-10-23T12:08:59.501Z,2.60
2022-10-23T12:11:50.828Z,2.40
2022-10-23T12:14:45.006Z,2.40
2022-10-23T12:17:37.479Z,2.40
2022-10-23T12:20:36.069Z,2.20
2022-10-23T12:24:09.579Z,2.70
2022-10-23T12:27:14.121Z,5.50
2022-10-23T12:30:17.371Z,3.60
2022-10-23T12:33:17.789Z,2.90
2022-10-23T12:36:37.968Z,5.20
2022-10-23T12:39:25.205Z,3.30
2022-10-23T12:42:22.943Z,3.80
2022-10-23T12:45:37.839Z,3.30
2022-10-23T12:48:24.962Z,2.70
2022-10-23T12:51:35.715Z,2.70
2022-10-23T12:54:22.410Z,4.10
2022-10-23T12:57:29.688Z,3.20
2022-10-23T13:00:22.669Z,3.20
2022-10-23T13:03:13.584Z,3.20
2022-10-23T13:06:03.724Z,2.90
2022-10-23T13:08:50.500Z,3.20
2022-10-23T13:11:51.475Z,3.40
2022-10-23T13:14:44.418Z,3.10
2022-10-23T13:17:46.834Z,3.10
2022-10-23T13:20:40.989Z,3.20
2022-10-23T13:23:31.617Z,3.50
2022-10-23T13:26:21.065Z,2.80
2022-10-23T13:32:24.635Z,3.60
2022-10-23T13:35:25.548Z,2.90
2022-10-23T13:38:13.104Z,3.30
2022-10-23T13:41:01.916Z,3.70
2022-10-23T13:43:48.564Z,3.10
2022-10-23T13:46:35.301Z,3.60
2022-10-23T13:49:21.716Z,3.90
2022-10-23T13:52:13.851Z,3.40
2022-10-23T13:55:00.342Z,3.20
2022-10-23T13:57:47.045Z,3.00
2022-10-23T14:00:33.861Z,3.10
2022-10-23T14:03:23.785Z,3.10
2022-10-23T14:06:10.677Z,3.20
2022-10-23T14:08:57.285Z,5.00
2022-10-23T14:11:44.211Z,4.30
2022-10-23T14:14:31.304Z,3.20
2022-10-23T14:17:20.874Z,3.00
2022-10-23T14:20:08.193Z,3.40
2022-10-23T14:22:55.511Z,3.10
2022-10-23T14:25:44.347Z,3.40
2022-10-23T14:28:48.718Z,3.20
2022-10-23T14:31:35.498Z,3.40
2022-10-23T14:34:22.488Z,3.80
2022-10-23T14:37:09.437Z,4.00
2022-10-23T14:39:56.130Z,4.20
2022-10-23T14:42:43.412Z,3.60
2022-10-23T14:45:37.551Z,3.40
2022-10-23T14:48:23.704Z,4.30
2022-10-23T14:51:25.260Z,4.30
2022-10-23T14:54:15.265Z,4.10
2022-10-23T14:57:03.461Z,4.50
2022-10-23T14:59:49.884Z,4.50
2022-10-23T15:02:36.287Z,4.70
2022-10-23T15:05:22.757Z,5.60
2022-10-23T15:08:09.956Z,4.90
2022-10-23T15:11:04.232Z,5.10
2022-10-23T15:13:54.235Z,5.60
2022-10-23T15:16:41.826Z,6.00
2022-10-23T15:19:38.387Z,6.50
2022-10-23T15:22:24.458Z,7.80
2022-10-23T15:25:14.249Z,7.40
2022-10-23T15:28:03.426Z,5.90
2022-10-23T15:30:49.671Z,5.60
2022-10-23T15:33:38.330Z,5.70
2022-10-23T15:36:25.682Z,5.80
2022-10-23T15:39:14.859Z,5.30
2022-10-23T15:42:04.090Z,5.30
2022-10-23T15:44:50.941Z,6.00
2022-10-23T15:47:37.361Z,5.70
2022-10-23T15:50:24.311Z,6.10
2022-10-23T15:53:10.855Z,10.30
2022-10-23T15:55:58.348Z,13.00
2022-10-23T15:58:45.496Z,16.50
2022-10-23T16:01:31.912Z,12.90
2022-10-23T16:04:18.311Z,15.30
2022-10-23T16:07:04.576Z,14.00
2022-10-23T16:09:51.322Z,13.30
2022-10-23T16:12:37.717Z,9.80
2022-10-23T16:15:24.297Z,7.50
2022-10-23T16:18:11.420Z,8.20
2022-10-23T16:20:57.845Z,14.90
2022-10-23T16:23:44.861Z,19.70
2022-10-23T16:26:32.605Z,21.10
2022-10-23T16:29:21.609Z,20.10
2022-10-23T16:32:07.878Z,19.80
2022-10-23T16:34:54.470Z,17.20
2022-10-23T16:37:41.629Z,19.20
2022-10-23T16:40:33.738Z,76.20
2022-10-23T16:43:43.382Z,87.00
2022-10-23T16:46:53.881Z,62.80
2022-10-23T16:49:40.541Z,49.00
2022-10-23T16:52:27.678Z,51.80
2022-10-23T16:55:14.744Z,54.30
2022-10-23T16:58:00.910Z,55.20
2022-10-23T17:01:09.140Z,55.10
2022-10-23T17:03:57.369Z,47.00
2022-10-23T17:06:44.281Z,71.40
2022-10-23T17:09:31.442Z,79.10
2022-10-23T17:12:17.977Z,99.60
2022-10-23T17:15:12.425Z,89.60
2022-10-23T17:18:04.205Z,75.10
2022-10-23T17:20:57.102Z,65.90
2022-10-23T17:23:44.887Z,61.50
2022-10-23T17:26:32.387Z,44.50
2022-10-23T17:29:18.876Z,32.30
2022-10-23T17:32:05.773Z,31.00
2022-10-23T17:34:52.682Z,24.10
2022-10-23T17:37:39.809Z,26.30
2022-10-23T17:40:33.466Z,20.20
2022-10-23T17:43:58.870Z,19.70
2022-10-23T17:46:45.728Z,20.60
2022-10-23T17:53:07.496Z,23.00
2022-10-23T18:02:52.601Z,22.60
2022-10-23T18:05:56.848Z,22.60
2022-10-23T18:08:46.250Z,22.30
2022-10-23T18:11:38.324Z,21.90
2022-10-23T18:14:27.342Z,28.00
2022-10-23T18:17:16.407Z,25.80
2022-10-23T18:20:04.634Z,25.10
2022-10-23T18:22:51.140Z,24.00
2022-10-23T18:25:42.958Z,25.90
2022-10-23T18:28:30.056Z,26.50
2022-10-23T18:31:18.381Z,27.10
2022-10-23T18:34:13.154Z,24.60
2022-10-23T18:37:00.461Z,25.20
2022-10-23T18:39:47.190Z,24.10
2022-10-23T18:42:34.173Z,23.50
2022-10-23T18:45:21.557Z,24.40
2022-10-23T18:48:08.230Z,23.10
2022-10-23T18:50:56.180Z,24.90
2022-10-23T18:53:46.140Z,25.00
2022-10-23T18:56:35.104Z,25.20
2022-10-23T18:59:21.553Z,24.30
2022-10-23T19:02:19.444Z,25.70
2022-10-23T19:05:08.394Z,25.30
2022-10-23T19:08:01.774Z,25.70
2022-10-23T19:10:49.932Z,25.90
2022-10-23T19:13:39.235Z,25.60
2022-10-23T19:17:02.375Z,25.00
2022-10-23T19:19:59.418Z,25.80
2022-10-23T19:22:50.643Z,26.40
2022-10-23T19:25:36.988Z,25.80
2022-10-23T19:28:27.321Z,25.50
2022-10-23T19:31:15.049Z,24.60
2022-10-23T19:34:03.667Z,22.60
2022-10-23T19:36:54.633Z,24.00
2022-10-23T19:39:41.163Z,21.90
2022-10-23T19:42:27.718Z,22.20
2022-10-23T19:45:18.463Z,23.60
2022-10-23T19:48:12.759Z,23.50
2022-10-23T19:51:03.167Z,23.30
2022-10-23T19:53:54.319Z,23.50
2022-10-23T19:56:48.139Z,22.00
2022-10-23T19:59:37.395Z,21.40
2022-10-23T20:02:24.155Z,19.80
2022-10-23T20:05:10.909Z,20.20
2022-10-23T20:07:57.885Z,18.80
2022-10-23T20:10:47.683Z,18.00
2022-10-23T20:13:36.735Z,16.90
2022-10-23T20:16:26.776Z,17.60
2022-10-23T20:22:04.005Z,17.40
2022-10-23T20:24:50.274Z,16.70
2022-10-23T20:30:24.137Z,16.20
2022-10-23T20:33:11.243Z,13.90
2022-10-23T20:35:57.894Z,15.20
2022-10-23T20:38:44.730Z,15.30
2022-10-23T20:41:32.733Z,16.00
2022-10-23T20:44:19.741Z,17.70
2022-10-23T20:47:06.249Z,15.60
2022-10-23T20:49:53.303Z,16.60
2022-10-23T20:52:42.949Z,15.50
2022-10-23T20:55:29.637Z,14.40
2022-10-23T20:58:15.914Z,15.40
2022-10-23T21:01:11.658Z,14.60
2022-10-23T21:04:00.774Z,13.00
2022-10-23T21:07:08.758Z,13.70
2022-10-23T21:09:56.113Z,14.20
2022-10-23T21:12:44.734Z,14.50
2022-10-23T21:15:31.457Z,15.00
2022-10-23T21:18:33.675Z,16.10
2022-10-23T21:21:26.870Z,18.80
2022-10-23T21:24:16.058Z,17.90
2022-10-23T21:27:02.533Z,18.60
2022-10-23T21:29:49.095Z,17.40
2022-10-23T21:32:35.574Z,19.20
2022-10-23T21:35:23.444Z,18.40
2022-10-23T21:38:11.668Z,19.10
2022-10-23T21:41:11.794Z,19.90
2022-10-23T21:44:02.944Z,16.90
2022-10-23T21:46:49.820Z,18.50
2022-10-23T21:49:36.588Z,17.50
2022-10-23T21:52:22.947Z,16.30
2022-10-23T21:55:09.925Z,17.40
2022-10-23T21:57:56.562Z,15.80
2022-10-23T22:00:45.286Z,14.40
2022-10-23T22:03:32.029Z,15.90
2022-10-23T22:06:27.269Z,15.00
2022-10-23T22:09:18.643Z,15.10
2022-10-23T22:12:05.736Z,15.20
2022-10-23T22:14:51.897Z,15.50
2022-10-23T22:17:38.467Z,15.00
2022-10-23T22:20:25.021Z,16.20
2022-10-23T22:23:11.431Z,14.60
2022-10-23T22:25:58.393Z,15.50
2022-10-23T22:28:44.716Z,14.50
2022-10-23T22:31:34.002Z,16.60
2022-10-23T22:34:48.400Z,17.10
2022-10-23T22:37:35.884Z,17.10
2022-10-23T22:40:22.332Z,16.20
2022-10-23T22:43:08.836Z,16.00
2022-10-23T22:46:05.348Z,15.90
2022-10-23T22:48:52.603Z,16.40
2022-10-23T22:51:39.458Z,16.30
2022-10-23T22:54:25.851Z,16.00
2022-10-23T22:57:12.110Z,13.40
2022-10-23T22:59:58.804Z,15.20
2022-10-23T23:02:45.046Z,14.80
2022-10-23T23:05:31.920Z,15.10
2022-10-23T23:08:20.592Z,15.80
2022-10-23T23:11:11.184Z,15.60
2022-10-23T23:13:57.520Z,14.80
2022-10-23T23:16:45.827Z,16.10
2022-10-23T23:19:32.222Z,16.80
2022-10-23T23:22:18.368Z,17.40
2022-10-23T23:25:05.541Z,16.60
2022-10-23T23:27:51.910Z,15.70
2022-10-23T23:30:40.259Z,17.00
2022-10-23T23:33:26.742Z,15.10
2022-10-23T23:36:17.845Z,16.60
2022-10-23T23:41:56.304Z,15.20
2022-10-23T23:44:50.391Z,14.60
2022-10-23T23:47:48.968Z,13.60
2022-10-23T23:50:35.579Z,13.70
2022-10-23T23:53:23.487Z,13.50
2022-10-23T23:56:10.612Z,13.50
2022-10-23T23:58:58.106Z,12.30
